Time;durP1;ratioP1;P1;durP2;ratioP2;P2;SDS_P1;SDS_P2;PMS_P1;PMS_P2;Temp;Humidity;BMP_temperature;BMP_pressure;BME280_temperature;BME280_humidity;BME280_pressure;Samples;Min_cycle;Max_cycle;Signal;HPM_P1;HPM_P2
2021/10/10 00:01:46;;;;;;;;;;;;;;;7.16;73.96;100649.09;6896088;20;16279;-35
2021/10/10 00:04:14;;;;;;;;;;;;;;;7.12;73.96;100644.75;6896740;20;7532;-36
2021/10/10 00:06:42;;;;;;;;;;;;;;;7.00;75.74;100645.13;6896214;20;7514;-35
2021/10/10 00:09:09;;;;;;;;;;;;;;;6.97;76.12;100647.91;6895832;20;7526;-35
2021/10/10 00:11:37;;;;;;;;;;;;;;;6.97;74.41;100640.75;6894577;20;18841;-35
2021/10/10 00:14:04;;;;;;;;;;;;;;;7.00;74.41;100632.69;6895055;20;19002;-35
2021/10/10 00:16:32;;;;;;;;;;;;;;;7.03;75.18;100631.72;6894266;20;18350;-35
2021/10/10 00:19:00;;;;;;;;;;;;;;;7.03;74.28;100637.06;6894062;20;7701;-34
2021/10/10 00:21:27;;;;;;;;;;;;;;;7.00;73.72;100631.78;6896512;20;15903;-35
2021/10/10 00:23:55;;;;;;;;;;;;;;;6.97;74.89;100634.56;6896051;20;7642;-35
2021/10/10 00:26:22;;;;;;;;;;;;;;;7.04;74.68;100628.09;6896186;20;18483;-35
2021/10/10 00:28:50;;;;;;;;;;;;;;;7.03;74.86;100631.72;6892839;20;18559;-35
2021/10/10 00:31:17;;;;;;;;;;;;;;;7.00;74.24;100622.00;6894471;20;18940;-35
2021/10/10 00:33:45;;;;;;;;;;;;;;;7.09;74.96;100623.50;6896430;20;7530;-35
2021/10/10 00:36:12;;;;;;;;;;;;;;;7.01;74.46;100622.88;6895416;20;9766;-35
2021/10/10 00:38:40;;;;;;;;;;;;;;;7.15;73.50;100625.97;6895555;20;7625;-35
2021/10/10 00:41:08;;;;;;;;;;;;;;;7.15;73.31;100628.63;6896370;20;20037;-35
2021/10/10 00:43:35;;;;;;;;;;;;;;;7.23;73.17;100621.22;6896561;20;7577;-36
2021/10/10 00:46:03;;;;;;;;;;;;;;;7.41;73.83;100619.75;6894891;20;17658;-35
2021/10/10 00:48:30;;;;;;;;;;;;;;;7.23;73.08;100623.91;6895106;20;7514;-35
2021/10/10 00:50:58;;;;;;;;;;;;;;;7.31;71.52;100618.31;6895286;20;19145;-35
2021/10/10 00:53:26;;;;;;;;;;;;;;;7.37;71.50;100628.81;6896215;20;7549;-35
2021/10/10 00:55:54;;;;;;;;;;;;;;;7.46;73.44;100620.47;6894156;20;7526;-35
2021/10/10 00:58:26;;;;;;;;;;;;;;;7.38;74.33;100621.66;6895693;20;7549;-35
2021/10/10 01:00:55;;;;;;;;;;;;;;;7.25;74.23;100624.75;6892926;20;17260;-35
2021/10/10 01:03:24;;;;;;;;;;;;;;;7.16;80.99;100627.72;6896204;20;7593;-36
2021/10/10 01:05:52;;;;;;;;;;;;;;;7.09;85.00;100631.50;6896446;20;19755;-35
2021/10/10 01:08:19;;;;;;;;;;;;;;;6.97;87.13;100623.88;6893281;20;7529;-35
2021/10/10 01:10:50;;;;;;;;;;;;;;;6.85;87.69;100624.28;6892465;20;19261;-36
2021/10/10 01:13:18;;;;;;;;;;;;;;;6.87;86.90;100615.28;6894665;20;7518;-36
2021/10/10 01:15:50;;;;;;;;;;;;;;;6.96;82.02;100614.13;6895734;20;7518;-35
2021/10/10 01:18:25;;;;;;;;;;;;;;;6.86;81.75;100610.88;6893066;20;18670;-35
2021/10/10 01:20:54;;;;;;;;;;;;;;;7.04;81.92;100618.28;6894775;20;7626;-35
2021/10/10 01:23:22;;;;;;;;;;;;;;;7.12;81.62;100617.19;6894372;20;17665;-35
2021/10/10 01:25:51;;;;;;;;;;;;;;;7.19;82.24;100622.28;6895348;20;7538;-36
2021/10/10 01:28:19;;;;;;;;;;;;;;;6.89;83.75;100615.25;6892860;20;7538;-35
2021/10/10 01:30:47;;;;;;;;;;;;;;;6.82;87.60;100612.78;6894004;20;7518;-35
2021/10/10 01:33:15;;;;;;;;;;;;;;;7.15;86.12;100609.94;6893573;20;7522;-36
2021/10/10 01:35:43;;;;;;;;;;;;;;;7.18;82.87;100614.31;6895405;20;7585;-35
2021/10/10 01:38:17;;;;;;;;;;;;;;;7.44;80.30;100608.09;6891838;20;7522;-36
2021/10/10 01:40:46;;;;;;;;;;;;;;;7.17;81.94;100613.44;6894109;20;20004;-36
2021/10/10 01:43:14;;;;;;;;;;;;;;;7.29;80.38;100598.78;6892564;20;19355;-35
2021/10/10 01:45:42;;;;;;;;;;;;;;;7.31;80.96;100610.31;6893323;20;7565;-35
2021/10/10 01:48:10;;;;;;;;;;;;;;;7.32;81.16;100595.13;6893188;20;7585;-35
2021/10/10 01:50:38;;;;;;;;;;;;;;;7.19;81.22;100592.03;6894875;20;7690;-35
2021/10/10 01:53:06;;;;;;;;;;;;;;;7.22;82.57;100587.44;6894592;20;7660;-36
2021/10/10 01:55:34;;;;;;;;;;;;;;;6.85;85.22;100584.25;6894492;20;7666;-35
2021/10/10 01:58:01;;;;;;;;;;;;;;;6.60;86.25;100585.00;6892292;20;17845;-35
2021/10/10 02:00:29;;;;;;;;;;;;;;;6.87;86.87;100596.59;6894351;20;7534;-37
2021/10/10 02:02:56;;;;;;;;;;;;;;;6.69;91.23;100597.16;6893052;20;19112;-35
2021/10/10 02:05:24;;;;;;;;;;;;;;;6.42;95.18;100602.41;6895448;20;7573;-36
2021/10/10 02:07:52;;;;;;;;;;;;;;;6.55;95.70;100600.25;6893023;20;7591;-36
2021/10/10 02:10:20;;;;;;;;;;;;;;;7.03;90.65;100607.69;6894179;20;17088;-35
2021/10/10 02:12:47;;;;;;;;;;;;;;;7.10;89.67;100606.53;6890563;20;20242;-35
2021/10/10 02:15:16;;;;;;;;;;;;;;;6.90;93.17;100603.63;6893818;20;7540;-36
2021/10/10 02:17:44;;;;;;;;;;;;;;;6.81;90.05;100605.66;6893079;20;7514;-35
2021/10/10 02:20:12;;;;;;;;;;;;;;;6.69;91.20;100611.41;6894083;20;7522;-36
2021/10/10 02:22:40;;;;;;;;;;;;;;;6.63;90.15;100606.22;6893728;20;7673;-36
2021/10/10 02:25:08;;;;;;;;;;;;;;;7.08;89.24;100600.38;6894504;20;7589;-36
2021/10/10 02:27:35;;;;;;;;;;;;;;;6.79;89.26;100602.19;6892291;20;19421;-36
2021/10/10 02:30:05;;;;;;;;;;;;;;;6.53;90.61;100599.44;6894440;20;7548;-36
2021/10/10 02:32:33;;;;;;;;;;;;;;;6.70;91.84;100599.78;6890723;20;7526;-36
2021/10/10 02:35:00;;;;;;;;;;;;;;;6.52;93.03;100597.69;6893533;20;19964;-36
2021/10/10 02:37:28;;;;;;;;;;;;;;;6.38;93.37;100596.31;6892219;20;7556;-35
2021/10/10 02:39:55;;;;;;;;;;;;;;;6.19;93.21;100600.44;6893043;20;7522;-35
2021/10/10 02:42:23;;;;;;;;;;;;;;;6.57;93.79;100601.09;6890681;20;18555;-36
2021/10/10 02:44:50;;;;;;;;;;;;;;;6.45;95.40;100602.34;6893069;20;8057;-36
2021/10/10 02:47:18;;;;;;;;;;;;;;;6.48;93.36;100591.59;6893339;20;7560;-36
2021/10/10 02:49:46;;;;;;;;;;;;;;;7.01;92.09;100599.72;6893190;20;7652;-35
2021/10/10 02:52:15;;;;;;;;;;;;;;;6.77;92.86;100606.69;6891276;20;18976;-36
2021/10/10 02:54:43;;;;;;;;;;;;;;;6.27;93.78;100592.22;6892147;20;7510;-36
2021/10/10 02:57:11;;;;;;;;;;;;;;;6.25;94.19;100589.59;6894462;20;7553;-36
2021/10/10 02:59:39;;;;;;;;;;;;;;;6.43;95.69;100590.84;6892670;20;7518;-36
2021/10/10 03:02:06;;;;;;;;;;;;;;;6.81;93.50;100595.00;6893487;20;11796;-36
2021/10/10 03:04:34;;;;;;;;;;;;;;;6.24;96.25;100590.53;6893241;20;7690;-36
2021/10/10 03:07:02;;;;;;;;;;;;;;;6.37;97.43;100596.34;6893297;20;7530;-36
2021/10/10 03:09:29;;;;;;;;;;;;;;;6.46;97.70;100597.88;6891768;20;19171;-36
2021/10/10 03:11:57;;;;;;;;;;;;;;;6.42;97.11;100590.88;6891392;20;19206;-36
2021/10/10 03:14:24;;;;;;;;;;;;;;;6.43;97.11;100592.66;6893193;20;7552;-36
2021/10/10 03:16:52;;;;;;;;;;;;;;;6.76;95.89;100588.06;6891799;20;17931;-36
2021/10/10 03:19:19;;;;;;;;;;;;;;;6.65;95.85;100583.06;6889845;20;7537;-36
2021/10/10 03:21:47;;;;;;;;;;;;;;;6.51;96.32;100588.81;6892466;20;19085;-36
2021/10/10 03:24:14;;;;;;;;;;;;;;;6.46;99.55;100587.22;6892180;20;7581;-36
2021/10/10 03:26:42;;;;;;;;;;;;;;;7.00;97.21;100584.63;6891308;20;18874;-36
2021/10/10 03:29:09;;;;;;;;;;;;;;;6.96;95.21;100588.31;6890616;20;7636;-36
2021/10/10 03:31:37;;;;;;;;;;;;;;;6.98;96.05;100591.81;6890315;20;7591;-36
2021/10/10 03:34:04;;;;;;;;;;;;;;;7.00;94.19;100589.06;6890041;20;16919;-36
2021/10/10 03:36:32;;;;;;;;;;;;;;;7.11;95.08;100591.38;6893110;20;7553;-36
2021/10/10 03:38:59;;;;;;;;;;;;;;;6.74;97.26;100590.78;6888261;20;17729;-36
2021/10/10 03:41:27;;;;;;;;;;;;;;;6.50;99.83;100594.19;6891428;20;7549;-36
2021/10/10 03:43:54;;;;;;;;;;;;;;;6.76;97.27;100586.25;6890702;20;7590;-36
2021/10/10 03:46:22;;;;;;;;;;;;;;;6.59;98.16;100588.59;6891671;20;7522;-36
2021/10/10 03:48:50;;;;;;;;;;;;;;;6.35;100.00;100591.06;6888263;20;7649;-36
2021/10/10 03:51:17;;;;;;;;;;;;;;;6.28;100.00;100593.97;6890182;20;19613;-36
2021/10/10 03:56:31;;;;;;;;;;;;;;;6.79;100.00;100583.50;6891867;20;9746;-36
2021/10/10 03:58:58;;;;;;;;;;;;;;;7.12;96.79;100583.34;6888075;20;7552;-36
2021/10/10 04:01:27;;;;;;;;;;;;;;;6.97;95.85;100578.50;6890604;20;7644;-36
2021/10/10 04:03:55;;;;;;;;;;;;;;;7.07;94.67;100579.94;6891328;20;7526;-36
2021/10/10 04:06:22;;;;;;;;;;;;;;;6.31;97.72;100578.72;6891426;20;7530;-36
2021/10/10 04:08:50;;;;;;;;;;;;;;;6.16;100.00;100584.50;6893616;20;7550;-36
2021/10/10 04:11:18;;;;;;;;;;;;;;;6.60;100.00;100585.84;6892504;20;7705;-36
2021/10/10 04:13:45;;;;;;;;;;;;;;;6.58;100.00;100577.06;6896070;20;7557;-36
2021/10/10 04:16:13;;;;;;;;;;;;;;;6.84;98.38;100577.13;6896910;20;7629;-36
2021/10/10 04:18:40;;;;;;;;;;;;;;;6.97;96.81;100573.16;6895622;20;7597;-36
2021/10/10 04:21:08;;;;;;;;;;;;;;;6.84;97.18;100578.00;6897453;20;8024;-36
2021/10/10 04:23:36;;;;;;;;;;;;;;;6.60;97.58;100574.31;6896340;20;7514;-36
2021/10/10 04:26:03;;;;;;;;;;;;;;;6.30;100.00;100570.81;6895636;20;7537;-36
2021/10/10 04:28:31;;;;;;;;;;;;;;;6.06;100.00;100572.41;6895766;20;7533;-36
2021/10/10 04:30:59;;;;;;;;;;;;;;;6.57;100.00;100571.75;6896786;20;7549;-36
2021/10/10 04:33:27;;;;;;;;;;;;;;;6.25;100.00;100570.94;6896932;20;7609;-36
2021/10/10 04:35:54;;;;;;;;;;;;;;;6.75;100.00;100563.16;6896435;20;14466;-36
2021/10/10 04:38:21;;;;;;;;;;;;;;;6.87;98.64;100572.56;6894122;20;7556;-36
2021/10/10 04:40:49;;;;;;;;;;;;;;;7.03;97.16;100570.31;6896051;20;7522;-36
2021/10/10 04:43:17;;;;;;;;;;;;;;;6.43;99.32;100571.31;6895975;20;7623;-36
2021/10/10 04:45:44;;;;;;;;;;;;;;;6.56;99.80;100570.00;6894972;20;7522;-36
2021/10/10 04:48:12;;;;;;;;;;;;;;;6.38;100.00;100574.97;6894234;20;7680;-36
2021/10/10 04:50:39;;;;;;;;;;;;;;;6.30;100.00;100569.00;6895110;20;7545;-36
2021/10/10 04:53:07;;;;;;;;;;;;;;;6.75;100.00;100573.84;6894018;20;7634;-36
2021/10/10 04:55:35;;;;;;;;;;;;;;;6.54;100.00;100564.72;6896417;20;7597;-36
2021/10/10 04:58:02;;;;;;;;;;;;;;;6.50;100.00;100567.50;6895196;20;7568;-36
2021/10/10 05:00:30;;;;;;;;;;;;;;;6.64;100.00;100567.97;6896245;20;7568;-36
2021/10/10 05:03:03;;;;;;;;;;;;;;;6.74;100.00;100566.78;6895528;20;7656;-36
2021/10/10 05:05:32;;;;;;;;;;;;;;;6.53;99.71;100567.41;6895726;20;7601;-36
2021/10/10 05:07:59;;;;;;;;;;;;;;;6.72;99.97;100567.75;6894437;20;7552;-36
2021/10/10 05:10:27;;;;;;;;;;;;;;;6.50;100.00;100567.50;6895121;20;7533;-36
2021/10/10 05:12:54;;;;;;;;;;;;;;;6.56;100.00;100562.88;6893133;20;19310;-36
2021/10/10 05:15:22;;;;;;;;;;;;;;;6.34;100.00;100567.97;6895022;20;18389;-36
2021/10/10 05:17:50;;;;;;;;;;;;;;;6.74;100.00;100569.44;6894856;20;7716;-36
2021/10/10 05:20:17;;;;;;;;;;;;;;;6.63;100.00;100563.53;6890935;20;17082;-36
2021/10/10 05:22:45;;;;;;;;;;;;;;;6.86;100.00;100570.81;6895216;20;7679;-37
2021/10/10 05:25:12;;;;;;;;;;;;;;;6.40;100.00;100571.38;6893023;20;7517;-36
2021/10/10 05:27:40;;;;;;;;;;;;;;;6.68;100.00;100564.28;6893536;20;7593;-36
2021/10/10 05:30:08;;;;;;;;;;;;;;;6.60;100.00;100571.66;6895067;20;19149;-37
2021/10/10 05:32:36;;;;;;;;;;;;;;;6.67;100.00;100569.69;6893316;20;7560;-36
2021/10/10 05:35:04;;;;;;;;;;;;;;;6.55;100.00;100568.25;6895663;20;7537;-36
2021/10/10 05:37:32;;;;;;;;;;;;;;;6.74;100.00;100572.09;6892882;20;12591;-37
2021/10/10 05:39:59;;;;;;;;;;;;;;;6.84;99.55;100574.47;6893743;20;7518;-37
2021/10/10 05:42:32;;;;;;;;;;;;;;;6.78;99.59;100571.06;6892703;20;7589;-36
2021/10/10 05:44:59;;;;;;;;;;;;;;;6.25;100.00;100573.59;6892643;20;16364;-37
2021/10/10 05:47:27;;;;;;;;;;;;;;;6.52;100.00;100579.03;6891911;20;7601;-36
2021/10/10 05:49:55;;;;;;;;;;;;;;;6.47;100.00;100580.94;6893447;20;16722;-36
2021/10/10 05:52:24;;;;;;;;;;;;;;;6.63;100.00;100587.56;6892581;20;15885;-36
2021/10/10 05:54:52;;;;;;;;;;;;;;;6.92;99.44;100583.09;6894228;20;19406;-36
2021/10/10 05:57:27;;;;;;;;;;;;;;;7.03;97.59;100586.31;6894529;20;7526;-36
2021/10/10 06:00:02;;;;;;;;;;;;;;;6.89;98.64;100581.41;6892595;20;19173;-36
2021/10/10 06:02:33;;;;;;;;;;;;;;;6.50;100.00;100579.09;6893739;20;7526;-36
2021/10/10 06:05:01;;;;;;;;;;;;;;;6.50;100.00;100578.19;6895570;20;7643;-36
2021/10/10 06:07:28;;;;;;;;;;;;;;;6.46;100.00;100579.22;6891549;20;7601;-36
2021/10/10 06:09:56;;;;;;;;;;;;;;;6.45;100.00;100585.44;6890852;20;17487;-36
2021/10/10 06:12:23;;;;;;;;;;;;;;;6.42;100.00;100585.56;6891568;20;15323;-36
2021/10/10 06:14:51;;;;;;;;;;;;;;;6.66;100.00;100582.16;6891715;20;19117;-36
2021/10/10 06:17:19;;;;;;;;;;;;;;;6.79;100.00;100580.84;6892004;20;7522;-36
2021/10/10 06:19:46;;;;;;;;;;;;;;;7.12;98.43;100577.13;6891502;20;7552;-36
2021/10/10 06:22:14;;;;;;;;;;;;;;;6.96;97.22;100577.63;6889930;20;19800;-36
2021/10/10 06:24:42;;;;;;;;;;;;;;;6.57;98.04;100569.94;6893098;20;7536;-37
2021/10/10 06:27:09;;;;;;;;;;;;;;;6.92;98.76;100570.63;6892168;20;17318;-36
2021/10/10 06:29:37;;;;;;;;;;;;;;;6.47;100.00;100572.94;6891928;20;7529;-36
2021/10/10 06:32:05;;;;;;;;;;;;;;;6.53;99.93;100570.06;6892072;20;19005;-36
2021/10/10 06:34:32;;;;;;;;;;;;;;;7.02;98.60;100581.88;6895114;20;8026;-36
2021/10/10 06:37:00;;;;;;;;;;;;;;;6.82;99.57;100588.75;6892793;20;7522;-36
2021/10/10 06:39:28;;;;;;;;;;;;;;;6.42;100.00;100585.56;6891338;20;7636;-36
2021/10/10 06:41:59;;;;;;;;;;;;;;;6.87;100.00;100582.38;6893152;20;17873;-36
2021/10/10 06:44:29;;;;;;;;;;;;;;;7.18;98.92;100584.94;6894059;20;19010;-36
2021/10/10 06:46:57;;;;;;;;;;;;;;;6.65;100.00;100579.53;6892029;20;17882;-36
2021/10/10 06:49:25;;;;;;;;;;;;;;;6.57;100.00;100579.75;6893867;20;7529;-36
2021/10/10 06:51:52;;;;;;;;;;;;;;;7.15;99.67;100587.69;6892338;20;7510;-37
2021/10/10 06:54:20;;;;;;;;;;;;;;;7.00;98.84;100586.41;6894736;20;7711;-36
2021/10/10 06:56:47;;;;;;;;;;;;;;;7.11;99.16;100586.94;6888213;20;7556;-36
2021/10/10 06:59:15;;;;;;;;;;;;;;;7.37;98.71;100586.06;6891020;20;7560;-36
2021/10/10 07:01:43;;;;;;;;;;;;;;;7.30;98.82;100581.00;6892374;20;8207;-37
2021/10/10 07:04:11;;;;;;;;;;;;;;;6.70;100.00;100580.25;6893612;20;19090;-36
2021/10/10 07:06:38;;;;;;;;;;;;;;;7.24;100.00;100596.28;6893020;20;20085;-38
2021/10/10 07:09:06;;;;;;;;;;;;;;;7.24;99.65;100590.06;6892326;20;7526;-36
2021/10/10 07:11:33;;;;;;;;;;;;;;;7.51;99.40;100596.28;6892320;20;18923;-37
2021/10/10 07:14:01;;;;;;;;;;;;;;;7.74;97.57;100594.59;6888849;20;8277;-36
2021/10/10 07:16:29;;;;;;;;;;;;;;;7.86;95.94;100592.34;6892656;20;19230;-37
2021/10/10 07:18:57;;;;;;;;;;;;;;;7.85;95.99;100590.63;6889161;20;7518;-37
2021/10/10 07:26:38;;;;;;;;;;;;;;;7.86;93.42;100591.50;6892527;20;18647;-37
2021/10/10 07:29:06;;;;;;;;;;;;;;;7.65;96.71;100591.31;6890130;20;7554;-36
2021/10/10 07:31:34;;;;;;;;;;;;;;;6.97;99.16;100594.50;6891093;20;17313;-37
2021/10/10 07:34:01;;;;;;;;;;;;;;;6.99;100.00;100588.19;6889637;20;7526;-37
2021/10/10 07:36:29;;;;;;;;;;;;;;;7.27;100.00;100584.63;6892441;20;7762;-37
2021/10/10 07:38:56;;;;;;;;;;;;;;;7.36;100.00;100586.13;6889134;20;17051;-37
2021/10/10 07:41:24;;;;;;;;;;;;;;;7.49;99.13;100582.09;6891243;20;9037;-37
2021/10/10 07:43:51;;;;;;;;;;;;;;;7.22;100.00;100587.44;6895959;20;8393;-37
2021/10/10 07:46:21;;;;;;;;;;;;;;;7.81;96.10;100590.78;6898389;20;7675;-36
2021/10/10 07:48:49;;;;;;;;;;;;;;;7.65;97.41;100577.94;6896716;20;7518;-37
2021/10/10 07:51:18;;;;;;;;;;;;;;;7.81;95.71;100586.31;6896950;20;20185;-36
2021/10/10 07:53:46;;;;;;;;;;;;;;;7.69;96.49;100586.75;6896056;20;18882;-37
2021/10/10 07:56:13;;;;;;;;;;;;;;;7.82;96.63;100580.03;6897098;20;13317;-37
2021/10/10 07:58:40;;;;;;;;;;;;;;;7.99;95.15;100584.78;6895983;20;18440;-37
2021/10/10 08:01:08;;;;;;;;;;;;;;;7.74;97.53;100586.56;6897325;20;7522;-36
2021/10/10 08:03:35;;;;;;;;;;;;;;;7.07;100.00;100585.28;6898260;20;18656;-37
2021/10/10 08:06:09;;;;;;;;;;;;;;;7.12;100.00;100587.81;6897486;20;7648;-37
2021/10/10 08:08:37;;;;;;;;;;;;;;;7.14;100.00;100589.50;6894556;20;7545;-36
2021/10/10 08:11:04;;;;;;;;;;;;;;;7.79;100.00;100584.59;6897707;20;16982;-37
2021/10/10 08:13:32;;;;;;;;;;;;;;;7.66;100.00;100594.84;6894644;20;18739;-36
2021/10/10 08:16:01;;;;;;;;;;;;;;;7.39;100.00;100594.03;6897799;20;7600;-37
2021/10/10 08:18:29;;;;;;;;;;;;;;;8.24;100.00;100583.84;6894632;20;7666;-36
2021/10/10 08:21:00;;;;;;;;;;;;;;;8.44;96.32;100589.38;6898354;20;7605;-36
2021/10/10 08:23:27;;;;;;;;;;;;;;;7.82;98.77;100580.03;6895935;20;7631;-37
2021/10/10 08:25:55;;;;;;;;;;;;;;;7.97;98.77;100583.94;6896784;20;19250;-36
2021/10/10 08:28:24;;;;;;;;;;;;;;;7.69;96.52;100579.59;6894789;20;7526;-37
2021/10/10 08:30:53;;;;;;;;;;;;;;;8.33;94.09;100586.19;6896683;20;18779;-36
2021/10/10 08:33:22;;;;;;;;;;;;;;;8.33;91.42;100580.84;6893650;20;7510;-36
2021/10/10 08:35:50;;;;;;;;;;;;;;;7.94;96.26;100577.84;6896792;20;15314;-37
2021/10/10 08:38:18;;;;;;;;;;;;;;;8.59;95.91;100587.03;6892338;20;7533;-37
2021/10/10 08:40:48;;;;;;;;;;;;;;;8.64;92.70;100580.56;6897131;20;7640;-37
2021/10/10 08:43:18;;;;;;;;;;;;;;;8.60;92.72;100576.25;6893152;20;7530;-37
2021/10/10 08:45:48;;;;;;;;;;;;;;;8.81;92.43;100577.22;6895381;20;7691;-37
2021/10/10 08:48:19;;;;;;;;;;;;;;;8.56;92.38;100582.69;6892277;20;7545;-36
2021/10/10 08:50:48;;;;;;;;;;;;;;;8.75;92.04;100578.34;6894085;20;17885;-37
2021/10/10 08:53:20;;;;;;;;;;;;;;;8.44;96.53;100580.47;6894405;20;7522;-37
2021/10/10 08:55:48;;;;;;;;;;;;;;;8.13;96.04;100569.06;6898050;20;18948;-37
2021/10/10 08:58:19;;;;;;;;;;;;;;;8.69;95.10;100578.59;6898914;20;7522;-37
2021/10/10 09:01:00;;;;;;;;;;;;;;;8.97;92.50;100572.13;6898552;20;7697;-37
2021/10/10 09:03:28;;;;;;;;;;;;;;;8.06;94.84;100567.59;6900164;20;19524;-36
2021/10/10 09:05:57;;;;;;;;;;;;;;;8.57;97.54;100571.03;6897471;20;12318;-37
2021/10/10 09:08:25;;;;;;;;;;;;;;;9.11;94.50;100567.09;6898162;20;18588;-36
2021/10/10 09:11:00;;;;;;;;;;;;;;;8.76;93.01;100574.72;6896952;20;19214;-37
2021/10/10 09:13:34;;;;;;;;;;;;;;;8.66;94.02;100559.97;6896045;20;18305;-37
2021/10/10 09:16:04;;;;;;;;;;;;;;;8.40;95.33;100561.00;6899542;20;7514;-37
2021/10/10 09:18:40;;;;;;;;;;;;;;;8.35;95.16;100552.25;6895285;20;18390;-37
2021/10/10 09:21:27;;;;;;;;;;;;;;;8.41;95.24;100557.38;6899221;20;7617;-37
2021/10/10 09:23:59;;;;;;;;;;;;;;;9.05;94.94;100553.06;6899149;20;8110;-37
2021/10/10 09:26:26;;;;;;;;;;;;;;;8.86;94.91;100558.28;6899371;20;7585;-36
2021/10/10 09:28:54;;;;;;;;;;;;;;;9.28;94.39;100554.78;6894388;20;18431;-37
2021/10/10 09:31:21;;;;;;;;;;;;;;;9.36;92.77;100547.28;6898578;20;7597;-36
2021/10/10 09:33:55;;;;;;;;;;;;;;;9.53;89.89;100555.47;6893915;20;7533;-37
2021/10/10 09:36:29;;;;;;;;;;;;;;;9.21;90.88;100538.06;6896302;20;7533;-37
2021/10/10 09:41:47;;;;;;;;;;;;;;;9.79;89.32;100546.25;6897406;20;16520;-37
2021/10/10 09:44:30;;;;;;;;;;;;;;;9.61;87.32;100549.75;6896625;20;16686;-37
2021/10/10 09:47:00;;;;;;;;;;;;;;;9.45;85.00;100553.13;6896123;20;19099;-37
2021/10/10 09:49:34;;;;;;;;;;;;;;;9.00;88.29;100539.84;6895397;20;7514;-37
2021/10/10 09:52:08;;;;;;;;;;;;;;;9.44;87.58;100546.00;6898469;20;17106;-37
2021/10/10 09:54:58;;;;;;;;;;;;;;;9.49;86.64;100542.25;6894490;20;18862;-37
2021/10/10 09:57:27;;;;;;;;;;;;;;;9.55;87.41;100552.72;6897964;20;20144;-37
2021/10/10 09:59:55;;;;;;;;;;;;;;;9.88;86.89;100556.59;6896708;20;17110;-37
2021/10/10 10:02:38;;;;;;;;;;;;;;;9.65;86.75;100556.75;6896381;20;7654;-37
2021/10/10 10:05:07;;;;;;;;;;;;;;;9.77;87.36;100553.53;6896688;20;7522;-37
2021/10/10 10:07:35;;;;;;;;;;;;;;;9.72;86.23;100560.91;6894145;20;16738;-37
2021/10/10 10:10:04;;;;;;;;;;;;;;;9.52;87.35;100553.72;6895877;20;7506;-37
2021/10/10 10:12:32;;;;;;;;;;;;;;;9.34;85.32;100560.72;6897250;20;7518;-36
2021/10/10 10:15:00;;;;;;;;;;;;;;;10.05;83.53;100561.19;6893171;20;15164;-37
2021/10/10 10:17:28;;;;;;;;;;;;;;;10.30;83.51;100563.66;6894701;20;7522;-38
2021/10/10 10:19:58;;;;;;;;;;;;;;;10.70;80.30;100561.78;6894243;20;7585;-37
2021/10/10 10:22:27;;;;;;;;;;;;;;;10.68;79.04;100552.91;6895004;20;17940;-37
2021/10/10 10:24:55;;;;;;;;;;;;;;;10.56;79.84;100553.53;6895655;20;7548;-37
2021/10/10 10:27:22;;;;;;;;;;;;;;;10.57;83.19;100549.88;6895241;20;7515;-37
2021/10/10 10:29:53;;;;;;;;;;;;;;;10.58;84.06;100554.28;6897513;20;7597;-37
2021/10/10 10:32:23;;;;;;;;;;;;;;;10.29;82.94;100543.16;6894478;20;15097;-37
2021/10/10 10:35:01;;;;;;;;;;;;;;;10.39;80.23;100550.75;6893056;20;8257;-37
2021/10/10 10:37:43;;;;;;;;;;;;;;;11.02;81.07;100539.66;6894654;20;19069;-37
2021/10/10 10:40:14;;;;;;;;;;;;;;;11.12;80.54;100541.81;6896441;20;7585;-37
2021/10/10 10:42:45;;;;;;;;;;;;;;;11.05;78.26;100543.06;6894014;20;17839;-37
2021/10/10 10:45:38;;;;;;;;;;;;;;;11.17;77.05;100539.75;6897066;20;7624;-38
2021/10/10 10:48:31;;;;;;;;;;;;;;;11.21;78.10;100543.16;6896063;20;17959;-37
2021/10/10 10:51:23;;;;;;;;;;;;;;;11.25;74.50;100538.50;6896548;20;15959;-37
2021/10/10 10:53:51;;;;;;;;;;;;;;;11.21;76.41;100530.56;6895472;20;7510;-37
2021/10/10 10:56:33;;;;;;;;;;;;;;;10.85;78.13;100521.66;6894372;20;18488;-37
2021/10/10 10:59:01;;;;;;;;;;;;;;;10.96;72.28;100525.59;6892051;20;17605;-38
2021/10/10 11:01:59;;;;;;;;;;;;;;;11.06;67.47;100531.38;6894152;20;19414;-36
2021/10/10 11:04:28;;;;;;;;;;;;;;;11.01;66.75;100528.06;6896741;20;7510;-36
2021/10/10 11:06:58;;;;;;;;;;;;;;;10.88;65.10;100521.53;6894643;20;19153;-37
2021/10/10 11:09:29;;;;;;;;;;;;;;;11.25;63.49;100530.44;6896620;20;7538;-37
2021/10/10 11:12:00;;;;;;;;;;;;;;;11.03;65.66;100519.88;6897231;20;7521;-37
2021/10/10 11:14:31;;;;;;;;;;;;;;;11.31;65.56;100525.63;6893574;20;7530;-37
2021/10/10 11:17:08;;;;;;;;;;;;;;;11.11;63.52;100513.22;6891244;20;7518;-37
2021/10/10 11:19:35;;;;;;;;;;;;;;;11.38;66.10;100510.06;6891155;20;17947;-37
2021/10/10 11:22:03;;;;;;;;;;;;;;;11.49;64.47;100506.81;6895946;20;20283;-37
2021/10/10 11:24:30;;;;;;;;;;;;;;;11.65;63.24;100503.22;6894776;20;18560;-38
2021/10/10 11:26:59;;;;;;;;;;;;;;;11.70;64.16;100494.91;6895972;20;7514;-39
2021/10/10 11:29:27;;;;;;;;;;;;;;;11.73;63.26;100493.88;6895568;20;7612;-37
2021/10/10 11:31:56;;;;;;;;;;;;;;;11.44;62.03;100493.59;6895450;20;18576;-37
2021/10/10 11:34:25;;;;;;;;;;;;;;;11.75;62.10;100491.97;6893608;20;17574;-37
2021/10/10 11:36:55;;;;;;;;;;;;;;;12.15;62.73;100488.00;6895091;20;18696;-40
2021/10/10 11:39:24;;;;;;;;;;;;;;;11.68;61.31;100487.88;6892901;20;14708;-37
2021/10/10 11:42:01;;;;;;;;;;;;;;;11.50;60.02;100479.81;6894122;20;7585;-43
2021/10/10 11:44:44;;;;;;;;;;;;;;;11.48;59.42;100480.84;6893835;20;7537;-43
2021/10/10 11:47:29;;;;;;;;;;;;;;;11.55;60.42;100480.44;6894483;20;7522;-42
2021/10/10 11:50:02;;;;;;;;;;;;;;;11.85;60.85;100463.63;6894409;20;18805;-43
2021/10/10 11:57:52;;;;;;;;;;;;;;;12.32;60.13;100460.13;6895416;20;7526;-43
2021/10/10 12:00:28;;;;;;;;;;;;;;;11.74;60.22;100464.22;6895135;20;10265;-43
2021/10/10 12:03:10;;;;;;;;;;;;;;;11.88;59.69;100460.81;6894645;20;19724;-42
2021/10/10 12:05:45;;;;;;;;;;;;;;;12.08;57.88;100457.00;6896526;20;7617;-42
2021/10/10 12:08:23;;;;;;;;;;;;;;;12.49;57.85;100461.88;6893744;20;20115;-44
2021/10/10 12:10:51;;;;;;;;;;;;;;;12.54;58.01;100464.31;6893767;20;16523;-42
2021/10/10 12:13:20;;;;;;;;;;;;;;;12.49;58.66;100462.75;6893981;20;7631;-42
2021/10/10 12:16:03;;;;;;;;;;;;;;;12.11;58.45;100464.03;6894154;20;7514;-42
2021/10/10 12:18:33;;;;;;;;;;;;;;;12.14;59.34;100461.16;6891333;20;7660;-42
2021/10/10 12:21:30;;;;;;;;;;;;;;;11.97;61.38;100460.28;6895385;20;7601;-42
2021/10/10 12:24:13;;;;;;;;;;;;;;;12.25;59.59;100453.38;6893741;20;7528;-43
2021/10/10 12:27:00;;;;;;;;;;;;;;;12.22;59.42;100464.31;6893354;20;18869;-42
2021/10/10 12:29:31;;;;;;;;;;;;;;;12.28;60.91;100458.59;6897045;20;7578;-42
2021/10/10 12:32:23;;;;;;;;;;;;;;;12.13;61.57;100451.38;6898581;20;20700;-43
2021/10/10 12:35:16;;;;;;;;;;;;;;;12.53;59.97;100452.66;6893093;20;16814;-43
2021/10/10 12:38:01;;;;;;;;;;;;;;;12.29;60.91;100449.53;6893594;20;16000;-42
2021/10/10 12:40:36;;;;;;;;;;;;;;;12.62;59.10;100443.19;6894551;20;7609;-43
2021/10/10 12:43:04;;;;;;;;;;;;;;;12.61;59.45;100438.75;6895985;20;7522;-42
2021/10/10 12:45:32;;;;;;;;;;;;;;;12.86;59.26;100439.06;6898286;20;7581;-42
2021/10/10 12:48:11;;;;;;;;;;;;;;;12.93;56.83;100435.06;6898980;20;7522;-42
2021/10/10 12:50:50;;;;;;;;;;;;;;;12.69;61.70;100431.09;6900274;20;7518;-42
2021/10/10 12:53:35;;;;;;;;;;;;;;;12.88;57.88;100442.53;6899153;20;13971;-42
2021/10/10 12:56:19;;;;;;;;;;;;;;;12.77;59.78;100431.53;6897745;20;20062;-42
2021/10/10 12:58:52;;;;;;;;;;;;;;;12.74;57.17;100434.38;6897510;20;8273;-42
2021/10/10 13:01:28;;;;;;;;;;;;;;;12.36;59.08;100425.84;6899654;20;7596;-42
2021/10/10 13:04:13;;;;;;;;;;;;;;;12.73;58.39;100430.81;6899492;20;7514;-42
2021/10/10 13:06:44;;;;;;;;;;;;;;;12.88;58.05;100437.16;6899172;20;19925;-46
2021/10/10 13:09:15;;;;;;;;;;;;;;;12.81;57.08;100427.69;6898078;20;17525;-44
2021/10/10 13:11:44;;;;;;;;;;;;;;;12.67;61.63;100424.94;6895956;20;18949;-42
2021/10/10 13:14:11;;;;;;;;;;;;;;;12.44;62.41;100427.13;6897957;20;15145;-42
2021/10/10 13:16:39;;;;;;;;;;;;;;;12.79;60.79;100423.34;6899243;20;18798;-42
2021/10/10 13:19:07;;;;;;;;;;;;;;;12.88;60.46;100422.81;6895683;20;7753;-43